createdAt,value
2022-11-13T00:00:38.204Z,17.45
2022-11-13T00:03:04.874Z,15.05
2022-11-13T00:05:31.516Z,18.05
2022-11-13T00:07:58.213Z,17.77
2022-11-13T00:10:24.882Z,15.60
2022-11-13T00:12:51.569Z,16.88
2022-11-13T00:15:18.189Z,17.65
2022-11-13T00:17:45.732Z,17.58
2022-11-13T00:20:12.374Z,14.75
2022-11-13T00:22:39.148Z,16.27
2022-11-13T00:25:06.123Z,18.20
2022-11-13T00:27:32.734Z,20.63
2022-11-13T00:29:59.481Z,15.02
2022-11-13T00:32:26.673Z,13.23
2022-11-13T00:34:53.361Z,16.70
2022-11-13T00:37:20.247Z,14.48
2022-11-13T00:39:46.973Z,18.38
2022-11-13T00:42:13.813Z,17.48
2022-11-13T00:44:40.674Z,17.48
2022-11-13T00:47:07.365Z,18.38
2022-11-13T00:49:34.113Z,15.80
2022-11-13T00:52:02.934Z,14.52
2022-11-13T00:54:29.802Z,15.45
2022-11-13T00:56:56.424Z,17.50
2022-11-13T00:59:23.205Z,16.48
2022-11-13T01:01:49.937Z,16.73
2022-11-13T01:04:16.778Z,15.35
2022-11-13T01:06:44.759Z,17.08
2022-11-13T01:09:11.648Z,14.43
2022-11-13T01:11:38.409Z,19.95
2022-11-13T01:14:05.164Z,18.40
2022-11-13T01:16:32.102Z,16.85
2022-11-13T01:18:58.982Z,15.73
2022-11-13T01:21:27.565Z,19.23
2022-11-13T01:23:55.058Z,17.40
2022-11-13T01:26:28.341Z,17.27
2022-11-13T01:28:58.321Z,15.50
2022-11-13T01:31:28.662Z,16.63
2022-11-13T01:33:56.007Z,17.92
2022-11-13T01:36:28.378Z,14.98
2022-11-13T01:38:55.906Z,17.02
2022-11-13T01:41:25.631Z,17.48
2022-11-13T01:43:53.952Z,18.98
2022-11-13T01:46:50.586Z,19.80
2022-11-13T01:49:24.552Z,20.67
2022-11-13T01:51:58.683Z,18.27
2022-11-13T01:54:39.020Z,16.52
2022-11-13T01:57:06.698Z,16.05
2022-11-13T01:59:40.897Z,15.55
2022-11-13T02:02:08.250Z,18.10
2022-11-13T02:04:36.042Z,19.92
2022-11-13T02:07:09.508Z,20.73
2022-11-13T02:09:40.324Z,19.33
2022-11-13T02:12:10.519Z,17.52
2022-11-13T02:14:41.322Z,17.35
2022-11-13T02:17:11.303Z,20.50
2022-11-13T02:19:42.149Z,17.42
2022-11-13T02:22:30.083Z,16.60
2022-11-13T02:25:00.323Z,15.85
2022-11-13T02:27:35.960Z,19.27
2022-11-13T02:30:22.028Z,16.27
2022-11-13T02:32:53.646Z,15.70
2022-11-13T02:35:24.971Z,16.23
2022-11-13T02:37:51.617Z,16.25
2022-11-13T02:40:19.090Z,15.93
2022-11-13T02:42:45.789Z,18.35
2022-11-13T02:45:12.474Z,19.23
2022-11-13T02:47:39.244Z,18.50
2022-11-13T02:50:06.587Z,17.58
2022-11-13T02:52:33.298Z,19.55
2022-11-13T02:54:59.968Z,17.67
2022-11-13T02:57:26.713Z,17.65
2022-11-13T02:59:53.737Z,18.73
2022-11-13T03:02:20.532Z,17.42
2022-11-13T03:05:16.330Z,18.50
2022-11-13T03:07:33.966Z,18.05
2022-11-13T03:10:00.647Z,18.02
2022-11-13T03:12:27.392Z,18.17
2022-11-13T03:14:54.075Z,17.27
2022-11-13T03:17:20.809Z,18.60
2022-11-13T03:19:47.552Z,20.85
2022-11-13T03:22:14.280Z,16.55
2022-11-13T03:24:40.964Z,15.63
2022-11-13T03:27:07.594Z,15.55
2022-11-13T03:29:34.275Z,15.00
2022-11-13T03:32:03.112Z,14.20
2022-11-13T03:34:29.898Z,18.00
2022-11-13T03:36:56.561Z,16.10
2022-11-13T03:39:23.256Z,17.05
2022-11-13T03:41:50.103Z,19.52
2022-11-13T03:44:17.065Z,19.38
2022-11-13T03:46:43.754Z,20.20
2022-11-13T03:49:10.423Z,18.50
2022-11-13T03:51:37.144Z,18.58
2022-11-13T03:54:04.007Z,17.13
2022-11-13T03:56:30.708Z,17.38
2022-11-13T03:58:57.500Z,18.27
2022-11-13T04:01:24.327Z,17.73
2022-11-13T04:03:50.985Z,16.63
2022-11-13T04:06:21.898Z,16.70
2022-11-13T04:08:48.666Z,19.88
2022-11-13T04:11:15.328Z,17.95
2022-11-13T04:13:42.030Z,20.90
2022-11-13T04:16:08.959Z,21.13
2022-11-13T04:18:35.590Z,19.67
2022-11-13T04:21:04.132Z,19.65
2022-11-13T04:23:31.307Z,19.88
2022-11-13T04:25:58.345Z,19.90
2022-11-13T04:28:25.151Z,20.02
2022-11-13T04:30:55.518Z,19.45
2022-11-13T04:33:22.510Z,19.15
2022-11-13T04:35:49.486Z,20.10
2022-11-13T04:38:16.408Z,17.75
2022-11-13T04:40:43.324Z,19.98
2022-11-13T04:43:10.132Z,19.27
2022-11-13T04:45:37.648Z,18.88
2022-11-13T04:48:04.776Z,21.50
2022-11-13T04:50:31.916Z,20.85
2022-11-13T04:52:58.749Z,31.27
2022-11-13T04:55:25.456Z,30.60
2022-11-13T04:57:55.348Z,29.17
2022-11-13T05:00:22.432Z,29.27
2022-11-13T05:02:49.195Z,29.15
2022-11-13T05:05:16.062Z,30.73
2022-11-13T05:07:42.786Z,27.40
2022-11-13T05:10:09.646Z,27.35
2022-11-13T05:12:36.341Z,25.13
2022-11-13T05:15:03.982Z,30.88
2022-11-13T05:17:30.612Z,27.98
2022-11-13T05:19:57.257Z,24.48
2022-11-13T05:22:24.020Z,26.13
2022-11-13T05:24:50.613Z,24.63
2022-11-13T05:27:17.933Z,27.52
2022-11-13T05:29:45.007Z,28.67
2022-11-13T05:32:11.777Z,23.80
2022-11-13T05:34:38.475Z,27.23
2022-11-13T05:37:05.253Z,23.77
2022-11-13T05:39:32.021Z,25.77
2022-11-13T05:41:59.403Z,21.73
2022-11-13T05:44:26.040Z,21.67
2022-11-13T05:46:52.709Z,24.20
2022-11-13T05:49:19.462Z,21.42
2022-11-13T05:51:46.209Z,25.13
2022-11-13T05:54:12.973Z,23.30
2022-11-13T05:56:40.485Z,19.10
2022-11-13T05:59:07.538Z,24.65
2022-11-13T06:01:37.471Z,22.33
2022-11-13T06:04:06.542Z,21.73
2022-11-13T06:06:33.902Z,23.45
2022-11-13T06:09:02.650Z,23.98
2022-11-13T06:11:30.454Z,20.38
2022-11-13T06:13:59.018Z,24.70
2022-11-13T06:16:30.487Z,24.75
2022-11-13T06:18:59.744Z,22.00
2022-11-13T06:21:30.313Z,21.35
2022-11-13T06:23:58.666Z,23.80
2022-11-13T06:26:33.988Z,20.90
2022-11-13T06:29:02.016Z,24.85
2022-11-13T06:31:32.343Z,21.50
2022-11-13T06:33:59.826Z,23.10
2022-11-13T06:36:28.988Z,22.80
2022-11-13T06:38:56.115Z,22.08
2022-11-13T06:41:26.985Z,18.70
2022-11-13T06:43:54.433Z,19.08
2022-11-13T06:46:25.602Z,20.92
2022-11-13T06:48:53.041Z,23.30
2022-11-13T06:51:25.704Z,19.40
2022-11-13T06:53:52.686Z,21.35
2022-11-13T06:56:19.813Z,21.20
2022-11-13T06:58:46.753Z,21.17
2022-11-13T07:01:19.415Z,19.60
2022-11-13T07:03:46.322Z,20.55
2022-11-13T07:06:18.578Z,21.05
2022-11-13T07:08:46.656Z,21.75
2022-11-13T07:11:16.592Z,21.65
2022-11-13T07:13:43.970Z,17.30
2022-11-13T07:16:19.115Z,18.38
2022-11-13T07:18:53.398Z,21.73
2022-11-13T07:21:21.310Z,19.15
2022-11-13T07:23:49.565Z,22.65
2022-11-13T07:26:16.697Z,23.90
2022-11-13T07:28:43.565Z,17.55
2022-11-13T07:31:12.753Z,20.88
2022-11-13T07:33:39.430Z,21.80
2022-11-13T07:36:06.719Z,23.33
2022-11-13T07:38:33.372Z,21.90
2022-11-13T07:41:00.520Z,21.15
2022-11-13T07:43:27.641Z,19.90
2022-11-13T07:45:55.413Z,19.63
2022-11-13T07:48:22.667Z,18.73
2022-11-13T07:50:49.744Z,16.45
2022-11-13T07:53:17.713Z,16.77
2022-11-13T07:55:44.520Z,17.17
2022-11-13T07:58:11.423Z,16.48
2022-11-13T08:00:38.865Z,16.40
2022-11-13T08:03:12.430Z,14.10
2022-11-13T08:05:39.781Z,20.50
2022-11-13T08:08:07.222Z,17.52
2022-11-13T08:10:34.049Z,15.18
2022-11-13T08:13:02.932Z,14.00
2022-11-13T08:15:30.742Z,16.52
2022-11-13T08:17:59.094Z,14.75
2022-11-13T08:20:27.607Z,13.85
2022-11-13T08:22:57.990Z,17.55
2022-11-13T08:25:25.088Z,13.40
2022-11-13T08:27:55.500Z,13.98
2022-11-13T08:30:23.802Z,13.27
2022-11-13T08:32:51.203Z,14.98
2022-11-13T08:35:19.708Z,16.83
2022-11-13T08:37:47.265Z,16.27
2022-11-13T08:40:14.344Z,15.80
2022-11-13T08:42:41.076Z,16.85
2022-11-13T08:45:08.718Z,17.80
2022-11-13T08:47:35.913Z,16.73
2022-11-13T08:50:03.253Z,18.77
2022-11-13T08:52:29.924Z,17.15
2022-11-13T08:54:56.899Z,17.25
2022-11-13T08:57:23.704Z,19.88
2022-11-13T08:59:50.552Z,16.73
2022-11-13T09:02:18.041Z,18.13
2022-11-13T09:04:44.776Z,16.35
2022-11-13T09:07:11.856Z,18.63
2022-11-13T09:09:39.527Z,19.65
2022-11-13T09:12:06.346Z,18.67
2022-11-13T09:14:33.095Z,19.92
2022-11-13T09:17:00.208Z,19.00
2022-11-13T09:19:27.210Z,18.92
2022-11-13T09:21:55.184Z,17.52
2022-11-13T09:24:21.989Z,25.77
2022-11-13T09:26:50.286Z,18.52
2022-11-13T09:29:18.354Z,17.77
2022-11-13T09:31:45.392Z,17.70
2022-11-13T09:34:12.061Z,17.17
2022-11-13T09:36:38.730Z,17.35
2022-11-13T09:39:05.635Z,18.48
2022-11-13T09:41:38.290Z,20.58
2022-11-13T09:44:12.145Z,19.65
2022-11-13T09:46:54.112Z,19.52
2022-11-13T09:49:36.122Z,17.73
2022-11-13T09:52:16.645Z,19.85
2022-11-13T09:54:43.454Z,21.15
2022-11-13T09:57:25.990Z,18.17
2022-11-13T10:00:04.176Z,17.45
2022-11-13T10:03:08.606Z,16.00
2022-11-13T10:05:51.447Z,16.90
2022-11-13T10:08:27.455Z,19.17
2022-11-13T10:11:04.727Z,18.40
2022-11-13T10:13:45.821Z,17.75
2022-11-13T10:16:30.648Z,21.75
2022-11-13T10:19:15.024Z,18.98
2022-11-13T10:21:52.069Z,18.25
2022-11-13T10:24:29.865Z,17.85
2022-11-13T10:26:59.765Z,18.48
2022-11-13T10:29:29.569Z,17.95
2022-11-13T10:31:57.192Z,19.15
2022-11-13T10:34:23.935Z,19.00
2022-11-13T10:37:09.072Z,17.92
2022-11-13T10:39:45.667Z,18.90
2022-11-13T10:42:24.260Z,18.88
2022-11-13T10:44:59.697Z,18.23
2022-11-13T10:48:02.117Z,19.58
2022-11-13T10:50:27.339Z,18.52
2022-11-13T10:52:56.043Z,22.08
2022-11-13T10:55:35.962Z,18.55
2022-11-13T10:58:12.391Z,23.50
2022-11-13T11:00:41.385Z,20.63
2022-11-13T11:03:19.551Z,21.92
2022-11-13T11:06:01.361Z,24.23
2022-11-13T11:08:34.868Z,22.10
2022-11-13T11:11:34.995Z,24.25
2022-11-13T11:14:32.043Z,20.70
2022-11-13T11:17:01.249Z,21.35
2022-11-13T11:19:32.139Z,21.48
2022-11-13T11:22:09.525Z,23.33
2022-11-13T11:24:42.200Z,23.00
2022-11-13T11:27:18.046Z,23.67
2022-11-13T11:29:54.334Z,23.23
2022-11-13T11:32:25.730Z,25.55
2022-11-13T11:35:05.165Z,25.75
2022-11-13T11:37:39.374Z,28.83
2022-11-13T11:40:21.946Z,26.98
2022-11-13T11:43:33.632Z,27.05
2022-11-13T11:46:00.386Z,28.70
2022-11-13T11:48:31.729Z,27.85
2022-11-13T11:51:13.311Z,30.38
2022-11-13T11:54:01.445Z,36.20
2022-11-13T11:56:42.043Z,36.78
2022-11-13T11:59:51.386Z,36.65
2022-11-13T12:05:27.426Z,36.47
2022-11-13T12:08:08.179Z,37.22
2022-11-13T12:10:37.875Z,37.25
2022-11-13T12:13:07.630Z,35.72
2022-11-13T12:15:49.696Z,37.65
2022-11-13T12:18:48.242Z,37.97
2022-11-13T12:21:56.679Z,39.10
2022-11-13T12:24:50.386Z,37.50
2022-11-13T12:27:38.537Z,43.63
2022-11-13T12:30:17.893Z,40.47
2022-11-13T12:32:44.835Z,42.45
2022-11-13T12:35:20.255Z,41.17
2022-11-13T12:38:15.336Z,42.60
2022-11-13T12:40:54.056Z,44.78
2022-11-13T12:43:26.698Z,41.70
2022-11-13T12:45:59.639Z,40.97
2022-11-13T12:48:33.037Z,41.90
2022-11-13T12:51:03.199Z,45.25
2022-11-13T12:53:43.079Z,40.45
2022-11-13T12:56:24.080Z,39.42
2022-11-13T12:59:34.320Z,39.45
2022-11-13T13:02:27.204Z,34.08
2022-11-13T13:05:31.143Z,38.75
2022-11-13T13:08:11.519Z,31.83
2022-11-13T13:11:04.934Z,30.67
2022-11-13T13:13:39.976Z,23.55
2022-11-13T13:16:08.786Z,21.70
2022-11-13T13:18:38.040Z,23.33
2022-11-13T13:21:15.528Z,19.35
2022-11-13T13:23:56.835Z,17.80
2022-11-13T13:26:28.824Z,16.02
2022-11-13T13:29:18.273Z,16.83
2022-11-13T13:32:20.698Z,15.57
2022-11-13T13:35:03.129Z,14.32
2022-11-13T13:38:09.279Z,14.50
2022-11-13T13:41:01.748Z,13.75
2022-11-13T13:43:28.431Z,11.65
2022-11-13T13:46:12.330Z,9.15
2022-11-13T13:48:41.034Z,7.45
2022-11-13T13:51:26.162Z,9.93
2022-11-13T13:53:54.949Z,7.78
2022-11-13T13:56:23.216Z,9.93
2022-11-13T13:58:51.178Z,7.75
2022-11-13T14:01:33.189Z,6.63
2022-11-13T14:04:14.134Z,7.15
2022-11-13T14:06:55.826Z,6.50
2022-11-13T14:09:30.849Z,7.65
2022-11-13T14:12:00.833Z,7.43
2022-11-13T14:14:29.857Z,7.75
2022-11-13T14:16:58.723Z,8.10
2022-11-13T14:19:25.383Z,9.15
2022-11-13T14:22:04.443Z,8.52
2022-11-13T14:24:48.763Z,8.10
2022-11-13T14:27:20.717Z,8.75
2022-11-13T14:29:54.050Z,7.55
2022-11-13T14:32:29.533Z,7.60
2022-11-13T14:35:02.140Z,9.23
2022-11-13T14:37:35.918Z,6.97
2022-11-13T14:40:11.203Z,8.10
2022-11-13T14:42:43.822Z,8.57
2022-11-13T14:45:19.767Z,9.35
2022-11-13T14:48:15.865Z,7.78
2022-11-13T14:50:51.691Z,7.53
2022-11-13T14:53:34.142Z,6.88
2022-11-13T14:56:12.108Z,7.97
2022-11-13T14:58:47.324Z,8.35
2022-11-13T15:01:18.322Z,7.35
2022-11-13T15:03:46.250Z,8.27
2022-11-13T15:06:18.804Z,8.38
2022-11-13T15:08:46.782Z,7.68
2022-11-13T15:11:15.590Z,7.20
2022-11-13T15:13:42.978Z,8.00
2022-11-13T15:16:26.339Z,6.90
2022-11-13T15:18:54.641Z,8.77
2022-11-13T15:21:21.480Z,8.85
2022-11-13T15:23:48.105Z,8.05
2022-11-13T15:26:14.782Z,9.50
2022-11-13T15:28:44.491Z,8.40
2022-11-13T15:31:41.652Z,7.55
2022-11-13T15:34:12.787Z,7.38
2022-11-13T15:36:39.794Z,7.53
2022-11-13T15:39:13.153Z,10.00
2022-11-13T15:41:45.297Z,10.32
2022-11-13T15:44:14.297Z,9.73
2022-11-13T15:46:41.552Z,8.38
2022-11-13T15:49:08.236Z,11.82
2022-11-13T15:51:39.797Z,9.50
2022-11-13T15:54:24.634Z,10.65
2022-11-13T15:56:51.372Z,10.75
2022-11-13T15:59:18.196Z,10.77
2022-11-13T16:01:45.263Z,9.27
2022-11-13T16:04:13.276Z,10.40
2022-11-13T16:06:40.625Z,15.02
2022-11-13T16:09:12.996Z,10.65
2022-11-13T16:11:39.880Z,10.95
2022-11-13T16:14:07.122Z,10.52
2022-11-13T16:16:38.461Z,12.20
2022-11-13T16:19:23.746Z,11.35
2022-11-13T16:21:50.431Z,9.48
2022-11-13T16:24:22.542Z,10.77
2022-11-13T16:26:54.837Z,9.68
2022-11-13T16:29:23.308Z,9.93
2022-11-13T16:31:50.231Z,10.50
2022-11-13T16:34:16.879Z,10.82
2022-11-13T16:36:43.707Z,12.77
2022-11-13T16:39:15.889Z,12.07
2022-11-13T16:41:42.721Z,12.35
2022-11-13T16:44:09.473Z,13.20
2022-11-13T16:46:41.569Z,13.40
2022-11-13T16:49:20.278Z,11.95
2022-11-13T16:51:46.996Z,13.10
2022-11-13T16:54:14.371Z,10.88
2022-11-13T16:56:41.095Z,9.27
2022-11-13T16:59:10.368Z,10.07
2022-11-13T17:01:37.244Z,8.43
2022-11-13T17:04:04.561Z,9.48
2022-11-13T17:06:34.200Z,8.65
2022-11-13T17:09:02.955Z,8.07
2022-11-13T17:11:31.929Z,10.43
2022-11-13T17:14:00.589Z,8.23
2022-11-13T17:16:30.270Z,9.35
2022-11-13T17:18:57.852Z,9.13
2022-11-13T17:21:27.301Z,8.75
2022-11-13T17:23:58.976Z,10.55
2022-11-13T17:28:53.277Z,9.05
2022-11-13T17:31:21.110Z,10.50
2022-11-13T17:33:48.211Z,10.50
2022-11-13T17:36:15.099Z,13.27
2022-11-13T17:38:41.875Z,12.30
2022-11-13T17:41:10.948Z,12.27
2022-11-13T17:43:39.567Z,11.25
2022-11-13T17:46:09.311Z,12.10
2022-11-13T17:48:36.869Z,11.45
2022-11-13T17:51:06.793Z,9.85
2022-11-13T17:53:34.151Z,8.73
2022-11-13T17:56:03.668Z,8.05
2022-11-13T17:58:30.844Z,8.07
2022-11-13T18:01:09.122Z,7.35
2022-11-13T18:06:13.464Z,8.07
2022-11-13T18:08:41.709Z,8.55
2022-11-13T18:11:15.400Z,7.55
2022-11-13T18:13:42.992Z,7.35
2022-11-13T18:16:13.860Z,7.38
2022-11-13T18:18:41.776Z,6.40
2022-11-13T18:21:23.466Z,8.48
2022-11-13T18:23:56.671Z,7.90
2022-11-13T18:26:23.773Z,8.70
2022-11-13T18:28:50.431Z,8.27
2022-11-13T18:31:18.857Z,8.75
2022-11-13T18:33:45.971Z,9.30
2022-11-13T18:36:12.991Z,8.52
2022-11-13T18:38:39.844Z,8.43
2022-11-13T18:41:09.679Z,8.00
2022-11-13T18:43:36.635Z,8.18
2022-11-13T18:46:08.978Z,8.82
2022-11-13T18:48:38.698Z,10.13
2022-11-13T18:51:14.934Z,9.27
2022-11-13T18:53:43.754Z,8.52
2022-11-13T18:56:13.774Z,9.75
2022-11-13T18:58:42.034Z,10.82
2022-11-13T19:01:23.097Z,10.32
2022-11-13T19:04:23.900Z,9.85
2022-11-13T19:06:40.830Z,9.20
2022-11-13T19:09:11.597Z,9.57
2022-11-13T19:11:38.961Z,7.68
2022-11-13T19:14:06.215Z,8.68
2022-11-13T19:16:35.693Z,9.55
2022-11-13T19:19:05.923Z,8.55
2022-11-13T19:21:35.170Z,9.98
2022-11-13T19:24:02.981Z,9.98
2022-11-13T19:26:30.168Z,8.63
2022-11-13T19:28:57.501Z,10.07
2022-11-13T19:31:26.596Z,11.32
2022-11-13T19:33:58.835Z,9.02
2022-11-13T19:36:28.124Z,8.68
2022-11-13T19:38:55.769Z,9.38
2022-11-13T19:41:23.662Z,9.27
2022-11-13T19:43:50.774Z,8.88
2022-11-13T19:46:19.322Z,9.07
2022-11-13T19:48:48.023Z,9.77
2022-11-13T19:51:18.485Z,9.63
2022-11-13T19:53:50.261Z,8.63
2022-11-13T19:58:49.563Z,9.23
2022-11-13T20:01:22.271Z,10.18
2022-11-13T20:03:54.540Z,9.48
2022-11-13T20:06:21.599Z,10.20
2022-11-13T20:08:48.436Z,11.60
2022-11-13T20:11:15.392Z,8.25
2022-11-13T20:13:43.072Z,9.25
2022-11-13T20:16:12.003Z,8.60
2022-11-13T20:18:38.935Z,10.40
2022-11-13T20:21:05.944Z,9.60
2022-11-13T20:23:33.374Z,10.68
2022-11-13T20:26:02.355Z,11.82
2022-11-13T20:28:30.599Z,10.13
2022-11-13T20:31:04.807Z,10.50
2022-11-13T20:33:33.326Z,13.77
2022-11-13T20:36:01.846Z,12.10
2022-11-13T20:38:29.200Z,11.48
2022-11-13T20:40:56.372Z,11.82
2022-11-13T20:43:23.675Z,10.68
2022-11-13T20:45:50.391Z,12.63
2022-11-13T20:48:17.187Z,13.50
2022-11-13T20:50:44.664Z,12.75
2022-11-13T20:53:12.465Z,13.02
2022-11-13T20:55:39.216Z,12.35
2022-11-13T20:58:05.966Z,12.98
2022-11-13T21:00:32.663Z,14.05
2022-11-13T21:02:59.440Z,14.13
2022-11-13T21:05:27.786Z,13.20
2022-11-13T21:07:54.661Z,15.98
2022-11-13T21:10:21.898Z,13.32
2022-11-13T21:12:48.559Z,14.13
2022-11-13T21:15:15.303Z,13.18
2022-11-13T21:17:41.941Z,14.10
2022-11-13T21:20:09.256Z,15.40
2022-11-13T21:22:35.865Z,14.35
2022-11-13T21:25:02.727Z,13.55
2022-11-13T21:27:29.314Z,14.13
2022-11-13T21:29:55.979Z,15.15
2022-11-13T21:32:22.595Z,13.88
2022-11-13T21:34:49.431Z,14.27
2022-11-13T21:37:16.297Z,12.93
2022-11-13T21:39:43.001Z,12.48
2022-11-13T21:42:09.767Z,14.38
2022-11-13T21:44:36.459Z,13.00
2022-11-13T21:47:03.370Z,13.35
2022-11-13T21:49:30.007Z,14.15
2022-11-13T21:51:56.890Z,12.82
2022-11-13T21:54:23.662Z,16.58
2022-11-13T21:56:50.913Z,13.93
2022-11-13T21:59:17.555Z,13.40
2022-11-13T22:01:44.261Z,15.13
2022-11-13T22:04:11.021Z,14.13
2022-11-13T22:06:39.569Z,13.35
2022-11-13T22:09:08.018Z,14.35
2022-11-13T22:11:36.256Z,14.98
2022-11-13T22:14:03.626Z,14.13
2022-11-13T22:16:33.247Z,12.38
2022-11-13T22:19:03.457Z,15.65
2022-11-13T22:21:31.320Z,14.05
2022-11-13T22:23:59.550Z,17.00
2022-11-13T22:26:27.892Z,15.30
2022-11-13T22:28:56.434Z,14.75
2022-11-13T22:31:26.675Z,13.80
2022-11-13T22:33:55.407Z,16.88
2022-11-13T22:36:23.647Z,16.17
2022-11-13T22:38:51.002Z,15.60
2022-11-13T22:41:24.211Z,15.60
2022-11-13T22:43:57.564Z,18.00
2022-11-13T22:46:26.541Z,14.07
2022-11-13T22:48:54.892Z,14.93
2022-11-13T22:51:24.240Z,16.55
2022-11-13T22:54:02.640Z,17.63
2022-11-13T22:56:30.959Z,19.55
2022-11-13T22:58:59.638Z,17.90
2022-11-13T23:01:28.942Z,19.50
2022-11-13T23:03:57.642Z,20.50
2022-11-13T23:06:27.218Z,22.77
2022-11-13T23:08:54.625Z,18.85
2022-11-13T23:11:23.974Z,19.17
2022-11-13T23:14:02.750Z,20.10
2022-11-13T23:16:31.051Z,19.98
2022-11-13T23:18:59.055Z,17.85
2022-11-13T23:21:27.683Z,19.75
2022-11-13T23:23:55.537Z,19.33
2022-11-13T23:26:22.960Z,19.15
2022-11-13T23:28:49.977Z,20.70
2022-11-13T23:31:16.877Z,17.98
2022-11-13T23:33:43.553Z,17.95
2022-11-13T23:36:12.178Z,20.23
2022-11-13T23:38:39.149Z,18.80
2022-11-13T23:41:06.653Z,20.27
2022-11-13T23:44:02.206Z,20.45
2022-11-13T23:46:20.177Z,17.73
2022-11-13T23:48:46.835Z,18.35
2022-11-13T23:51:13.544Z,19.40
2022-11-13T23:53:40.235Z,18.98
2022-11-13T23:56:07.671Z,18.45
2022-11-13T23:58:34.869Z,18.27
